AKT181 CYHM-CYSB
Flight info
| Callsign | AKT181 |
|---|---|
| Flight time | 0h 53m |
| Altitude | 34000 |
| Route | YVV/N0445F330 DCT BUDAG |
| Aircraft | B737/M-SDE2E3FGHIRWXY/LB1 |
Departure
| Time | 2026-04-21 03:36 |
|---|---|
| Airport | John C. Munro Hamilton International Airport (CYHM) |
Arrival
| Time | 2026-04-21 04:30 |
|---|---|
| Airport | Sudbury Airport (CYSB) |
| Time | Latitude | Longitude | Altitude | Speed | Heading |
|---|---|---|---|---|---|
| 2026-04-21 03:10 | 43.16410 | -79.92573 | 776 ft | 0 kts | 197° |
| 2026-04-21 03:27 | 43.16411 | -79.92573 | 785 ft | 1 kts | 197° |
| 2026-04-21 03:27 | 43.16425 | -79.92567 | 776 ft | 3 kts | 195° |
| 2026-04-21 03:27 | 43.16445 | -79.92560 | 776 ft | 3 kts | 192° |
| 2026-04-21 03:27 | 43.16465 | -79.92555 | 776 ft | 3 kts | 187° |
| 2026-04-21 03:28 | 43.16485 | -79.92553 | 776 ft | 3 kts | 173° |
| 2026-04-21 03:28 | 43.16497 | -79.92556 | 776 ft | 3 kts | 154° |
| 2026-04-21 03:28 | 43.16508 | -79.92567 | 776 ft | 1 kts | 110° |
| 2026-04-21 03:28 | 43.16509 | -79.92570 | 776 ft | 1 kts | 108° |
| 2026-04-21 03:30 | 43.16507 | -79.92558 | 776 ft | 3 kts | 104° |
| 2026-04-21 03:30 | 43.16522 | -79.92519 | 776 ft | 7 kts | 32° |
| 2026-04-21 03:31 | 43.16574 | -79.92500 | 776 ft | 8 kts | 2° |
| 2026-04-21 03:31 | 43.16625 | -79.92518 | 776 ft | 8 kts | 333° |
| 2026-04-21 03:31 | 43.16671 | -79.92553 | 776 ft | 7 kts | 330° |
| 2026-04-21 03:31 | 43.16714 | -79.92586 | 776 ft | 7 kts | 330° |
| 2026-04-21 03:32 | 43.16758 | -79.92622 | 776 ft | 8 kts | 327° |
| 2026-04-21 03:32 | 43.16808 | -79.92662 | 776 ft | 8 kts | 330° |
| 2026-04-21 03:32 | 43.16858 | -79.92700 | 776 ft | 8 kts | 330° |
| 2026-04-21 03:32 | 43.16906 | -79.92739 | 776 ft | 8 kts | 328° |
| 2026-04-21 03:33 | 43.16952 | -79.92779 | 776 ft | 8 kts | 329° |
| 2026-04-21 03:33 | 43.17007 | -79.92819 | 776 ft | 10 kts | 334° |
| 2026-04-21 03:33 | 43.17083 | -79.92821 | 772 ft | 15 kts | 35° |
| 2026-04-21 03:33 | 43.17160 | -79.92712 | 773 ft | 17 kts | 46° |
| 2026-04-21 03:34 | 43.17239 | -79.92598 | 776 ft | 17 kts | 46° |
| 2026-04-21 03:34 | 43.17323 | -79.92467 | 776 ft | 19 kts | 54° |
| 2026-04-21 03:34 | 43.17409 | -79.92313 | 776 ft | 22 kts | 50° |
| 2026-04-21 03:34 | 43.17521 | -79.92142 | 772 ft | 25 kts | 45° |
| 2026-04-21 03:35 | 43.17631 | -79.91974 | 767 ft | 23 kts | 50° |
| 2026-04-21 03:35 | 43.17698 | -79.91798 | 767 ft | 18 kts | 60° |
| 2026-04-21 03:35 | 43.17742 | -79.91824 | 767 ft | 10 kts | 224° |
| 2026-04-21 03:35 | 43.17690 | -79.91901 | 767 ft | 15 kts | 226° |
| 2026-04-21 03:36 | 43.17559 | -79.92087 | 771 ft | 56 kts | 227° |
| 2026-04-21 03:36 | 43.17136 | -79.92759 | 772 ft | 127 kts | 228° |
| 2026-04-21 03:36 | 43.16428 | -79.93804 | 1026 ft | 160 kts | 225° |
| 2026-04-21 03:36 | 43.15656 | -79.94953 | 1854 ft | 166 kts | 230° |
| 2026-04-21 03:37 | 43.14924 | -79.96135 | 2870 ft | 161 kts | 232° |
| 2026-04-21 03:37 | 43.14172 | -79.97387 | 3436 ft | 188 kts | 232° |
| 2026-04-21 03:37 | 43.13276 | -79.98910 | 3763 ft | 219 kts | 237° |
| 2026-04-21 03:37 | 43.12795 | -80.00958 | 4206 ft | 242 kts | 275° |
| 2026-04-21 03:38 | 43.13462 | -80.03071 | 5254 ft | 247 kts | 311° |
| 2026-04-21 03:38 | 43.14828 | -80.04493 | 6445 ft | 249 kts | 329° |
| 2026-04-21 03:38 | 43.16400 | -80.05578 | 7478 ft | 254 kts | 333° |
| 2026-04-21 03:38 | 43.18021 | -80.06587 | 8527 ft | 257 kts | 334° |
| 2026-04-21 03:39 | 43.19662 | -80.07593 | 9580 ft | 259 kts | 334° |
| 2026-04-21 03:39 | 43.21316 | -80.08614 | 10538 ft | 266 kts | 333° |
| 2026-04-21 03:39 | 43.23065 | -80.09710 | 10821 ft | 294 kts | 333° |
| 2026-04-21 03:39 | 43.25007 | -80.10939 | 11117 ft | 318 kts | 333° |
| 2026-04-21 03:40 | 43.27048 | -80.12239 | 11852 ft | 327 kts | 333° |
| 2026-04-21 03:40 | 43.29121 | -80.13566 | 12807 ft | 329 kts | 333° |
| 2026-04-21 03:40 | 43.31212 | -80.14910 | 13764 ft | 332 kts | 333° |
| 2026-04-21 03:40 | 43.33318 | -80.16270 | 14609 ft | 336 kts | 333° |
| 2026-04-21 03:41 | 43.35445 | -80.17647 | 15437 ft | 338 kts | 333° |
| 2026-04-21 03:41 | 43.37549 | -80.19013 | 16285 ft | 340 kts | 333° |
| 2026-04-21 03:41 | 43.39706 | -80.20416 | 17113 ft | 343 kts | 333° |
| 2026-04-21 03:41 | 43.41879 | -80.21831 | 17929 ft | 347 kts | 333° |
| 2026-04-21 03:42 | 43.44074 | -80.23263 | 18724 ft | 350 kts | 333° |
| 2026-04-21 03:42 | 43.46287 | -80.24707 | 19437 ft | 352 kts | 333° |
| 2026-04-21 03:42 | 43.48477 | -80.26138 | 20178 ft | 353 kts | 333° |
| 2026-04-21 03:42 | 43.50699 | -80.27591 | 20896 ft | 355 kts | 333° |
| 2026-04-21 03:43 | 43.52940 | -80.29057 | 21609 ft | 357 kts | 333° |
| 2026-04-21 03:43 | 43.55193 | -80.30533 | 22307 ft | 359 kts | 333° |
| 2026-04-21 03:43 | 43.57459 | -80.32019 | 22986 ft | 361 kts | 333° |
| 2026-04-21 03:43 | 43.59735 | -80.33512 | 23684 ft | 364 kts | 333° |
| 2026-04-21 03:44 | 43.62040 | -80.35025 | 24255 ft | 366 kts | 334° |
| 2026-04-21 03:44 | 43.64318 | -80.36515 | 24841 ft | 367 kts | 334° |
| 2026-04-21 03:44 | 43.66646 | -80.37995 | 25407 ft | 368 kts | 334° |
| 2026-04-21 03:44 | 43.68978 | -80.39473 | 25930 ft | 369 kts | 334° |
| 2026-04-21 03:45 | 43.71322 | -80.40974 | 26442 ft | 371 kts | 334° |
| 2026-04-21 03:45 | 43.73677 | -80.42499 | 26929 ft | 373 kts | 334° |
| 2026-04-21 03:45 | 43.76027 | -80.44036 | 27413 ft | 375 kts | 334° |
| 2026-04-21 03:45 | 43.78365 | -80.45574 | 27884 ft | 376 kts | 334° |
| 2026-04-21 03:46 | 43.80741 | -80.47145 | 28350 ft | 378 kts | 334° |
| 2026-04-21 03:46 | 43.83121 | -80.48724 | 28818 ft | 379 kts | 334° |
| 2026-04-21 03:46 | 43.85508 | -80.50309 | 29411 ft | 377 kts | 334° |
| 2026-04-21 03:46 | 43.87827 | -80.51852 | 30151 ft | 372 kts | 334° |
| 2026-04-21 03:47 | 43.90146 | -80.53396 | 30805 ft | 368 kts | 334° |
| 2026-04-21 03:47 | 43.92456 | -80.54933 | 31158 ft | 369 kts | 334° |
| 2026-04-21 03:47 | 43.94793 | -80.56492 | 31466 ft | 372 kts | 334° |
| 2026-04-21 03:47 | 43.97134 | -80.58056 | 31863 ft | 372 kts | 334° |
| 2026-04-21 03:48 | 43.99469 | -80.59617 | 32281 ft | 372 kts | 334° |
| 2026-04-21 03:48 | 44.01772 | -80.61158 | 32682 ft | 372 kts | 334° |
| 2026-04-21 03:48 | 44.04104 | -80.62719 | 33115 ft | 371 kts | 334° |
| 2026-04-21 03:48 | 44.06433 | -80.64279 | 33522 ft | 370 kts | 334° |
| 2026-04-21 03:49 | 44.08759 | -80.65839 | 33823 ft | 372 kts | 334° |
| 2026-04-21 03:49 | 44.11103 | -80.67412 | 34100 ft | 374 kts | 334° |
| 2026-04-21 03:49 | 44.13453 | -80.68990 | 34359 ft | 376 kts | 334° |
| 2026-04-21 03:49 | 44.15775 | -80.70552 | 34320 ft | 370 kts | 334° |
| 2026-04-21 03:50 | 44.20307 | -80.73602 | 34344 ft | 356 kts | 333° |
| 2026-04-21 03:50 | 44.24755 | -80.76601 | 34380 ft | 357 kts | 333° |
| 2026-04-21 03:51 | 44.29246 | -80.79636 | 34349 ft | 359 kts | 333° |
| 2026-04-21 03:51 | 44.33719 | -80.82662 | 34346 ft | 359 kts | 333° |
| 2026-04-21 03:52 | 44.38232 | -80.85722 | 34342 ft | 360 kts | 333° |
| 2026-04-21 03:52 | 44.42745 | -80.88785 | 34338 ft | 360 kts | 333° |
| 2026-04-21 03:53 | 44.47222 | -80.91831 | 34304 ft | 359 kts | 333° |
| 2026-04-21 03:53 | 44.51709 | -80.94888 | 34309 ft | 358 kts | 333° |
| 2026-04-21 03:54 | 44.56199 | -80.97952 | 34311 ft | 357 kts | 333° |
| 2026-04-21 03:54 | 44.60646 | -81.00993 | 34304 ft | 357 kts | 333° |
| 2026-04-21 03:55 | 44.65115 | -81.04054 | 34313 ft | 357 kts | 333° |
| 2026-04-21 03:55 | 44.69585 | -81.07120 | 34298 ft | 357 kts | 333° |
| 2026-04-21 03:56 | 44.74278 | -81.09325 | 34302 ft | 361 kts | 346° |
| 2026-04-21 03:56 | 44.79339 | -81.09813 | 34290 ft | 370 kts | 359° |
| 2026-04-21 03:57 | 44.84443 | -81.09038 | 34308 ft | 372 kts | 0° |
| 2026-04-21 03:57 | 44.89592 | -81.08168 | 34304 ft | 372 kts | 0° |
| 2026-04-21 03:58 | 44.94754 | -81.07315 | 34306 ft | 373 kts | 0° |
| 2026-04-21 03:58 | 44.99881 | -81.06486 | 34315 ft | 373 kts | 0° |
| 2026-04-21 03:59 | 45.05055 | -81.05658 | 34349 ft | 373 kts | 0° |
| 2026-04-21 04:00 | 45.12798 | -81.04421 | 34326 ft | 374 kts | 0° |
| 2026-04-21 04:00 | 45.17972 | -81.03592 | 34326 ft | 373 kts | 0° |
| 2026-04-21 04:01 | 45.23145 | -81.02762 | 34339 ft | 373 kts | 0° |
| 2026-04-21 04:01 | 45.28281 | -81.01937 | 34318 ft | 373 kts | 0° |
| 2026-04-21 04:02 | 45.33458 | -81.01104 | 34315 ft | 373 kts | 0° |
| 2026-04-21 04:02 | 45.38590 | -81.00276 | 34313 ft | 373 kts | 0° |
| 2026-04-21 04:03 | 45.43757 | -80.99441 | 34320 ft | 374 kts | 360° |
| 2026-04-21 04:03 | 45.48928 | -80.98604 | 34311 ft | 374 kts | 360° |
| 2026-04-21 04:04 | 45.54127 | -80.97766 | 33688 ft | 390 kts | 360° |
| 2026-04-21 04:04 | 45.56873 | -80.97332 | 32987 ft | 403 kts | 0° |
| 2026-04-21 04:04 | 45.59666 | -80.96880 | 32171 ft | 402 kts | 0° |
| 2026-04-21 04:04 | 45.62456 | -80.96421 | 31337 ft | 402 kts | 360° |
| 2026-04-21 04:05 | 45.65248 | -80.95961 | 30533 ft | 401 kts | 360° |
| 2026-04-21 04:05 | 45.68000 | -80.95504 | 29826 ft | 395 kts | 359° |
| 2026-04-21 04:05 | 45.70679 | -80.95060 | 29176 ft | 388 kts | 359° |
| 2026-04-21 04:05 | 45.73341 | -80.94620 | 28529 ft | 381 kts | 359° |
| 2026-04-21 04:06 | 45.75967 | -80.94188 | 27879 ft | 376 kts | 359° |
| 2026-04-21 04:06 | 45.78545 | -80.93764 | 27279 ft | 370 kts | 359° |
| 2026-04-21 04:06 | 45.81098 | -80.93347 | 26661 ft | 367 kts | 359° |
| 2026-04-21 04:06 | 45.83615 | -80.92934 | 26322 ft | 359 kts | 359° |
| 2026-04-21 04:07 | 45.86065 | -80.92533 | 26072 ft | 362 kts | 359° |
| 2026-04-21 04:07 | 45.88636 | -80.92124 | 25849 ft | 378 kts | 359° |
| 2026-04-21 04:07 | 45.91283 | -80.91701 | 25604 ft | 385 kts | 360° |
| 2026-04-21 04:07 | 45.93953 | -80.91263 | 25354 ft | 384 kts | 360° |
| 2026-04-21 04:08 | 45.96604 | -80.90822 | 25135 ft | 382 kts | 360° |
| 2026-04-21 04:08 | 45.99244 | -80.90503 | 24879 ft | 377 kts | 355° |
| 2026-04-21 04:08 | 46.01836 | -80.90523 | 24677 ft | 376 kts | 353° |
| 2026-04-21 04:08 | 46.04462 | -80.90619 | 24436 ft | 377 kts | 352° |
| 2026-04-21 04:09 | 46.07081 | -80.90729 | 24199 ft | 376 kts | 353° |
| 2026-04-21 04:09 | 46.09705 | -80.90831 | 23962 ft | 376 kts | 353° |
| 2026-04-21 04:09 | 46.12316 | -80.90921 | 23481 ft | 375 kts | 353° |
| 2026-04-21 04:09 | 46.14916 | -80.90999 | 22862 ft | 369 kts | 353° |
| 2026-04-21 04:10 | 46.17442 | -80.91066 | 22236 ft | 364 kts | 353° |
| 2026-04-21 04:10 | 46.19961 | -80.91131 | 21594 ft | 360 kts | 353° |
| 2026-04-21 04:10 | 46.22459 | -80.91194 | 20982 ft | 356 kts | 353° |
| 2026-04-21 04:10 | 46.24907 | -80.91257 | 20366 ft | 353 kts | 353° |
| 2026-04-21 04:11 | 46.27368 | -80.91320 | 19759 ft | 351 kts | 354° |
| 2026-04-21 04:11 | 46.29807 | -80.91382 | 19143 ft | 349 kts | 354° |
| 2026-04-21 04:11 | 46.32230 | -80.91445 | 18545 ft | 347 kts | 354° |
| 2026-04-21 04:11 | 46.34650 | -80.91507 | 17852 ft | 346 kts | 354° |
| 2026-04-21 04:12 | 46.37020 | -80.91567 | 17217 ft | 344 kts | 354° |
| 2026-04-21 04:12 | 46.39416 | -80.91627 | 16603 ft | 341 kts | 354° |
| 2026-04-21 04:12 | 46.41777 | -80.91687 | 15975 ft | 339 kts | 354° |
| 2026-04-21 04:12 | 46.44136 | -80.91747 | 15364 ft | 337 kts | 354° |
| 2026-04-21 04:13 | 46.46476 | -80.91807 | 14742 ft | 336 kts | 354° |
| 2026-04-21 04:13 | 46.48811 | -80.91867 | 14136 ft | 335 kts | 354° |
| 2026-04-21 04:13 | 46.51120 | -80.91926 | 13481 ft | 334 kts | 354° |
| 2026-04-21 04:13 | 46.53441 | -80.91986 | 12836 ft | 332 kts | 355° |
| 2026-04-21 04:14 | 46.55747 | -80.92044 | 12224 ft | 330 kts | 355° |
| 2026-04-21 04:14 | 46.58013 | -80.92102 | 11633 ft | 328 kts | 355° |
| 2026-04-21 04:14 | 46.60288 | -80.92155 | 11052 ft | 326 kts | 356° |
| 2026-04-21 04:14 | 46.62507 | -80.91530 | 10829 ft | 324 kts | 19° |
| 2026-04-21 04:15 | 46.64375 | -80.89764 | 10697 ft | 319 kts | 39° |
| 2026-04-21 04:15 | 46.65738 | -80.87264 | 10695 ft | 315 kts | 58° |
| 2026-04-21 04:15 | 46.66524 | -80.84301 | 10702 ft | 312 kts | 70° |
| 2026-04-21 04:15 | 46.67140 | -80.81247 | 10723 ft | 320 kts | 71° |
| 2026-04-21 04:16 | 46.67560 | -80.79122 | 10746 ft | 339 kts | 71° |
| 2026-04-21 04:16 | 46.69004 | -80.74939 | 10749 ft | 354 kts | 44° |
| 2026-04-21 04:16 | 46.70900 | -80.72726 | 10775 ft | 348 kts | 29° |
| 2026-04-21 04:16 | 46.72925 | -80.70783 | 10779 ft | 349 kts | 29° |
| 2026-04-21 04:17 | 46.74955 | -80.68830 | 10777 ft | 350 kts | 29° |
| 2026-04-21 04:17 | 46.76305 | -80.67531 | 10776 ft | 350 kts | 29° |
| 2026-04-21 04:17 | 46.78336 | -80.65573 | 10779 ft | 350 kts | 29° |
| 2026-04-21 04:17 | 46.80364 | -80.63620 | 10791 ft | 350 kts | 29° |
| 2026-04-21 04:18 | 46.82395 | -80.61662 | 10812 ft | 349 kts | 29° |
| 2026-04-21 04:18 | 46.84427 | -80.59704 | 10804 ft | 349 kts | 29° |
| 2026-04-21 04:18 | 46.86458 | -80.57747 | 10804 ft | 349 kts | 29° |
| 2026-04-21 04:18 | 46.88491 | -80.55786 | 10806 ft | 348 kts | 29° |
| 2026-04-21 04:19 | 46.90493 | -80.53855 | 10804 ft | 348 kts | 29° |
| 2026-04-21 04:19 | 46.92522 | -80.51918 | 10799 ft | 347 kts | 26° |
| 2026-04-21 04:19 | 46.94747 | -80.50675 | 10634 ft | 337 kts | 5° |
| 2026-04-21 04:19 | 46.97002 | -80.50728 | 10379 ft | 319 kts | 345° |
| 2026-04-21 04:20 | 46.99108 | -80.51494 | 10141 ft | 306 kts | 341° |
| 2026-04-21 04:20 | 47.01090 | -80.52422 | 9871 ft | 292 kts | 331° |
| 2026-04-21 04:20 | 47.02605 | -80.54294 | 9295 ft | 284 kts | 300° |
| 2026-04-21 04:20 | 47.03167 | -80.57013 | 8777 ft | 280 kts | 271° |
| 2026-04-21 04:21 | 47.02995 | -80.59856 | 8268 ft | 279 kts | 258° |
| 2026-04-21 04:21 | 47.02328 | -80.62522 | 7743 ft | 280 kts | 241° |
| 2026-04-21 04:21 | 47.01106 | -80.64714 | 7461 ft | 272 kts | 221° |
| 2026-04-21 04:21 | 46.99547 | -80.66103 | 7430 ft | 255 kts | 206° |
| 2026-04-21 04:22 | 46.97880 | -80.66765 | 7105 ft | 253 kts | 188° |
| 2026-04-21 04:22 | 46.96135 | -80.66654 | 6838 ft | 247 kts | 179° |
| 2026-04-21 04:22 | 46.94452 | -80.66396 | 6576 ft | 239 kts | 179° |
| 2026-04-21 04:22 | 46.92838 | -80.66133 | 6492 ft | 228 kts | 179° |
| 2026-04-21 04:23 | 46.91224 | -80.65876 | 6146 ft | 238 kts | 179° |
| 2026-04-21 04:23 | 46.89541 | -80.65611 | 5884 ft | 247 kts | 179° |
| 2026-04-21 04:23 | 46.87841 | -80.65339 | 5599 ft | 241 kts | 179° |
| 2026-04-21 04:23 | 46.86216 | -80.65081 | 5308 ft | 233 kts | 179° |
| 2026-04-21 04:24 | 46.84623 | -80.64831 | 5021 ft | 227 kts | 180° |
| 2026-04-21 04:24 | 46.83060 | -80.64583 | 4737 ft | 223 kts | 180° |
| 2026-04-21 04:24 | 46.81551 | -80.64526 | 4435 ft | 209 kts | 198° |
| 2026-04-21 04:24 | 46.80295 | -80.65308 | 4287 ft | 188 kts | 213° |
| 2026-04-21 04:25 | 46.79205 | -80.66181 | 4203 ft | 166 kts | 213° |
| 2026-04-21 04:25 | 46.78241 | -80.66962 | 4206 ft | 153 kts | 214° |
| 2026-04-21 04:25 | 46.77347 | -80.67695 | 4222 ft | 144 kts | 214° |
| 2026-04-21 04:25 | 46.76481 | -80.68408 | 4216 ft | 142 kts | 214° |
| 2026-04-21 04:26 | 46.75623 | -80.69114 | 4139 ft | 145 kts | 214° |
| 2026-04-21 04:26 | 46.74742 | -80.69837 | 3944 ft | 143 kts | 214° |
| 2026-04-21 04:26 | 46.73889 | -80.70537 | 3748 ft | 140 kts | 213° |
| 2026-04-21 04:26 | 46.73031 | -80.71242 | 3567 ft | 142 kts | 213° |
| 2026-04-21 04:27 | 46.72166 | -80.71952 | 3371 ft | 142 kts | 213° |
| 2026-04-21 04:27 | 46.71320 | -80.72647 | 3187 ft | 140 kts | 212° |
| 2026-04-21 04:27 | 46.70475 | -80.73341 | 2999 ft | 138 kts | 211° |
| 2026-04-21 04:27 | 46.69646 | -80.74022 | 2817 ft | 132 kts | 211° |
| 2026-04-21 04:28 | 46.68887 | -80.74643 | 2657 ft | 121 kts | 211° |
| 2026-04-21 04:28 | 46.68156 | -80.75245 | 2488 ft | 121 kts | 210° |
| 2026-04-21 04:28 | 46.67422 | -80.75849 | 2331 ft | 121 kts | 210° |
| 2026-04-21 04:28 | 46.66689 | -80.76451 | 2168 ft | 121 kts | 209° |
| 2026-04-21 04:29 | 46.65956 | -80.77053 | 2001 ft | 122 kts | 210° |
| 2026-04-21 04:29 | 46.65246 | -80.77655 | 1755 ft | 113 kts | 209° |
| 2026-04-21 04:29 | 46.64545 | -80.78219 | 1526 ft | 130 kts | 217° |
| 2026-04-21 04:29 | 46.63800 | -80.78824 | 1361 ft | 117 kts | 222° |
| 2026-04-21 04:30 | 46.63117 | -80.79393 | 1152 ft | 103 kts | 214° |
| 2026-04-21 04:30 | 46.62613 | -80.79796 | 1145 ft | 56 kts | 207° |
| 2026-04-21 04:30 | 46.62367 | -80.79993 | 1147 ft | 36 kts | 210° |
| 2026-04-21 04:30 | 46.62165 | -80.80161 | 1148 ft | 32 kts | 210° |
| 2026-04-21 04:31 | 46.61981 | -80.80308 | 1146 ft | 29 kts | 211° |
| 2026-04-21 04:31 | 46.61815 | -80.80432 | 1150 ft | 22 kts | 188° |
| 2026-04-21 04:31 | 46.61758 | -80.80281 | 1148 ft | 22 kts | 72° |
| 2026-04-21 04:31 | 46.61824 | -80.80087 | 1147 ft | 22 kts | 28° |
| 2026-04-21 04:32 | 46.61957 | -80.79985 | 1147 ft | 21 kts | 33° |
| 2026-04-21 04:32 | 46.62082 | -80.79879 | 1148 ft | 20 kts | 29° |
| 2026-04-21 04:32 | 46.62193 | -80.79787 | 1149 ft | 10 kts | 28° |
| 2026-04-21 04:32 | 46.62253 | -80.79754 | 1149 ft | 8 kts | 30° |
| 2026-04-21 04:33 | 46.62294 | -80.79713 | 1149 ft | 3 kts | 34° |
| 2026-04-21 04:33 | 46.62295 | -80.79713 | 1149 ft | 0 kts | 33° |
| 2026-04-21 04:33 | 46.62296 | -80.79712 | 1149 ft | 1 kts | 33° |
| 2026-04-21 04:33 | 46.62311 | -80.79697 | 1148 ft | 6 kts | 36° |
| 2026-04-21 04:34 | 46.62352 | -80.79654 | 1150 ft | 8 kts | 35° |
| 2026-04-21 04:34 | 46.62346 | -80.79632 | 1148 ft | 3 kts | 170° |
| 2026-04-21 04:34 | 46.62326 | -80.79626 | 1148 ft | 3 kts | 168° |
| 2026-04-21 04:34 | 46.62321 | -80.79624 | 1148 ft | 0 kts | 168° |
| 2026-04-21 04:37 | 46.62315 | -80.79620 | 1148 ft | 0 kts | 198° |